Jeddah/Abdul Aziz, Saudi Arabia
Current Conditions -  °F | °C
As of 12:00 AM on Monday 24 Nov 2014 (Local Time) from OEJN Reporting Station
Scattered Clouds Scattered Clouds  
Wind Chill: 79°   Ceiling: Unl
Heat Index: 81°   Visibility: 6mi
Dew Point: 66°   Wind: 3mph
Humidity: 65%   Direction: 10°N
Pressure: 29.83"   Gusts: NA
Location:  21.67°N, 39.15°E
Report Text: OEJN 232100Z 01003KT 9999 SCT040 26/19 Q1010 NOSIG
Loading
Personal Weather Stations






























Interactive Weather Map New forecast layout! Learn more

10-Day Weather Forecast

Advertisements
Track Severe Weather on mobile